sensor_id;sensor_type;location;lat;lon;timestamp;temperature;humidity
24814;DHT22;12904;50.088;11.414;2022-08-19T00:00:29;19.00;99.90
24814;DHT22;12904;50.088;11.414;2022-08-19T00:02:55;19.00;99.90
24814;DHT22;12904;50.088;11.414;2022-08-19T00:05:21;19.00;99.90
24814;DHT22;12904;50.088;11.414;2022-08-19T00:07:49;19.00;99.90
24814;DHT22;12904;50.088;11.414;2022-08-19T00:10:16;19.00;99.90
24814;DHT22;12904;50.088;11.414;2022-08-19T00:12:42;19.00;99.90
24814;DHT22;12904;50.088;11.414;2022-08-19T00:15:10;19.00;99.90
24814;DHT22;12904;50.088;11.414;2022-08-19T00:17:41;19.00;99.90
24814;DHT22;12904;50.088;11.414;2022-08-19T00:20:09;19.00;99.90
24814;DHT22;12904;50.088;11.414;2022-08-19T00:22:36;19.00;99.90
24814;DHT22;12904;50.088;11.414;2022-08-19T00:25:03;19.00;99.90
24814;DHT22;12904;50.088;11.414;2022-08-19T00:27:28;19.00;99.90
24814;DHT22;12904;50.088;11.414;2022-08-19T00:29:54;19.00;99.90
24814;DHT22;12904;50.088;11.414;2022-08-19T00:32:20;19.00;99.90
24814;DHT22;12904;50.088;11.414;2022-08-19T00:34:46;18.90;99.90
24814;DHT22;12904;50.088;11.414;2022-08-19T00:37:12;18.90;99.90
24814;DHT22;12904;50.088;11.414;2022-08-19T00:39:38;18.90;99.90
24814;DHT22;12904;50.088;11.414;2022-08-19T00:42:04;18.90;99.90
24814;DHT22;12904;50.088;11.414;2022-08-19T00:44:31;18.90;99.90
24814;DHT22;12904;50.088;11.414;2022-08-19T00:46:58;18.80;99.90
24814;DHT22;12904;50.088;11.414;2022-08-19T00:51:53;18.80;99.90
24814;DHT22;12904;50.088;11.414;2022-08-19T00:54:21;18.70;99.90
24814;DHT22;12904;50.088;11.414;2022-08-19T00:56:47;18.70;99.90
24814;DHT22;12904;50.088;11.414;2022-08-19T00:59:15;18.70;99.90
24814;DHT22;12904;50.088;11.414;2022-08-19T01:01:42;18.70;99.90
24814;DHT22;12904;50.088;11.414;2022-08-19T01:04:08;18.70;99.90
24814;DHT22;12904;50.088;11.414;2022-08-19T01:06:37;18.60;99.90
24814;DHT22;12904;50.088;11.414;2022-08-19T01:09:04;18.60;99.90
24814;DHT22;12904;50.088;11.414;2022-08-19T01:11:32;18.60;99.90
24814;DHT22;12904;50.088;11.414;2022-08-19T01:13:59;18.60;99.90
24814;DHT22;12904;50.088;11.414;2022-08-19T01:16:27;18.60;99.90
24814;DHT22;12904;50.088;11.414;2022-08-19T01:18:53;18.70;99.90
24814;DHT22;12904;50.088;11.414;2022-08-19T01:21:46;18.70;99.90
24814;DHT22;12904;50.088;11.414;2022-08-19T01:24:15;18.70;99.90
24814;DHT22;12904;50.088;11.414;2022-08-19T01:26:42;18.70;99.90
24814;DHT22;12904;50.088;11.414;2022-08-19T01:29:10;18.70;99.90
24814;DHT22;12904;50.088;11.414;2022-08-19T01:31:36;18.70;99.90
24814;DHT22;12904;50.088;11.414;2022-08-19T01:34:05;18.70;99.90
24814;DHT22;12904;50.088;11.414;2022-08-19T01:36:41;18.70;99.90
24814;DHT22;12904;50.088;11.414;2022-08-19T01:39:11;18.70;99.90
24814;DHT22;12904;50.088;11.414;2022-08-19T01:41:37;18.70;99.90
24814;DHT22;12904;50.088;11.414;2022-08-19T01:44:03;18.80;99.90
24814;DHT22;12904;50.088;11.414;2022-08-19T01:46:30;18.80;99.90
24814;DHT22;12904;50.088;11.414;2022-08-19T01:48:56;18.80;99.90
24814;DHT22;12904;50.088;11.414;2022-08-19T01:51:22;18.80;99.90
24814;DHT22;12904;50.088;11.414;2022-08-19T01:53:49;18.80;99.90
24814;DHT22;12904;50.088;11.414;2022-08-19T01:56:16;18.90;99.90
24814;DHT22;12904;50.088;11.414;2022-08-19T01:58:47;18.90;99.90
24814;DHT22;12904;50.088;11.414;2022-08-19T02:01:16;18.90;99.90
24814;DHT22;12904;50.088;11.414;2022-08-19T02:03:42;18.90;99.90
24814;DHT22;12904;50.088;11.414;2022-08-19T02:06:08;18.90;99.90
24814;DHT22;12904;50.088;11.414;2022-08-19T02:08:36;18.90;99.90
24814;DHT22;12904;50.088;11.414;2022-08-19T02:11:02;18.90;99.90
24814;DHT22;12904;50.088;11.414;2022-08-19T02:13:28;18.90;99.90
24814;DHT22;12904;50.088;11.414;2022-08-19T02:15:54;18.90;99.90
24814;DHT22;12904;50.088;11.414;2022-08-19T02:18:20;18.90;99.90
24814;DHT22;12904;50.088;11.414;2022-08-19T02:20:49;18.90;99.90
24814;DHT22;12904;50.088;11.414;2022-08-19T02:23:16;18.90;99.90
24814;DHT22;12904;50.088;11.414;2022-08-19T02:25:44;19.00;99.90
24814;DHT22;12904;50.088;11.414;2022-08-19T02:28:11;19.00;99.90
24814;DHT22;12904;50.088;11.414;2022-08-19T02:30:37;19.00;99.90
24814;DHT22;12904;50.088;11.414;2022-08-19T02:33:04;19.00;99.90
24814;DHT22;12904;50.088;11.414;2022-08-19T02:35:30;19.00;99.90
24814;DHT22;12904;50.088;11.414;2022-08-19T02:37:56;19.00;99.90
24814;DHT22;12904;50.088;11.414;2022-08-19T02:40:40;19.00;99.90
24814;DHT22;12904;50.088;11.414;2022-08-19T02:43:07;19.00;99.90
24814;DHT22;12904;50.088;11.414;2022-08-19T02:45:38;19.10;99.90
24814;DHT22;12904;50.088;11.414;2022-08-19T02:48:07;19.00;99.90
24814;DHT22;12904;50.088;11.414;2022-08-19T02:50:39;19.10;99.90
24814;DHT22;12904;50.088;11.414;2022-08-19T02:53:05;19.10;99.90
24814;DHT22;12904;50.088;11.414;2022-08-19T02:55:32;19.00;99.90
24814;DHT22;12904;50.088;11.414;2022-08-19T02:57:58;19.00;99.90
24814;DHT22;12904;50.088;11.414;2022-08-19T03:00:25;19.00;99.90
24814;DHT22;12904;50.088;11.414;2022-08-19T03:02:52;19.00;99.90
24814;DHT22;12904;50.088;11.414;2022-08-19T03:05:17;19.00;99.90
24814;DHT22;12904;50.088;11.414;2022-08-19T03:07:43;19.00;99.90
24814;DHT22;12904;50.088;11.414;2022-08-19T03:10:09;19.00;99.90
24814;DHT22;12904;50.088;11.414;2022-08-19T03:12:37;19.00;99.90
24814;DHT22;12904;50.088;11.414;2022-08-19T03:15:05;19.00;99.90
24814;DHT22;12904;50.088;11.414;2022-08-19T03:17:31;19.00;99.90
24814;DHT22;12904;50.088;11.414;2022-08-19T03:19:57;19.00;99.90
24814;DHT22;12904;50.088;11.414;2022-08-19T03:22:23;19.00;99.90
24814;DHT22;12904;50.088;11.414;2022-08-19T03:24:48;19.10;99.90
24814;DHT22;12904;50.088;11.414;2022-08-19T03:27:14;19.10;99.90
24814;DHT22;12904;50.088;11.414;2022-08-19T03:29:40;19.00;99.90
24814;DHT22;12904;50.088;11.414;2022-08-19T03:32:06;19.00;99.90
24814;DHT22;12904;50.088;11.414;2022-08-19T03:34:34;19.10;99.90
24814;DHT22;12904;50.088;11.414;2022-08-19T03:37:07;19.10;99.90
24814;DHT22;12904;50.088;11.414;2022-08-19T03:39:38;19.10;99.90
24814;DHT22;12904;50.088;11.414;2022-08-19T03:42:04;19.00;99.90
24814;DHT22;12904;50.088;11.414;2022-08-19T03:44:31;19.10;99.90
24814;DHT22;12904;50.088;11.414;2022-08-19T03:46:59;19.10;99.90
24814;DHT22;12904;50.088;11.414;2022-08-19T03:49:28;19.10;99.90
24814;DHT22;12904;50.088;11.414;2022-08-19T03:51:56;19.10;99.90
24814;DHT22;12904;50.088;11.414;2022-08-19T03:54:24;19.10;99.90
24814;DHT22;12904;50.088;11.414;2022-08-19T03:56:52;19.10;99.90
24814;DHT22;12904;50.088;11.414;2022-08-19T03:59:24;19.10;99.90
24814;DHT22;12904;50.088;11.414;2022-08-19T04:01:52;19.10;99.90
24814;DHT22;12904;50.088;11.414;2022-08-19T04:04:18;19.10;99.90
24814;DHT22;12904;50.088;11.414;2022-08-19T04:06:44;19.10;99.90
24814;DHT22;12904;50.088;11.414;2022-08-19T04:09:11;19.10;99.90
24814;DHT22;12904;50.088;11.414;2022-08-19T04:11:48;19.10;99.90
24814;DHT22;12904;50.088;11.414;2022-08-19T04:14:18;19.10;99.90
24814;DHT22;12904;50.088;11.414;2022-08-19T04:16:45;19.00;99.90
24814;DHT22;12904;50.088;11.414;2022-08-19T04:19:13;19.00;99.90
24814;DHT22;12904;50.088;11.414;2022-08-19T04:21:39;19.00;99.90
24814;DHT22;12904;50.088;11.414;2022-08-19T04:24:05;19.00;99.90
24814;DHT22;12904;50.088;11.414;2022-08-19T04:26:34;18.90;99.90
24814;DHT22;12904;50.088;11.414;2022-08-19T04:29:03;18.90;99.90
24814;DHT22;12904;50.088;11.414;2022-08-19T04:31:31;18.90;99.90
24814;DHT22;12904;50.088;11.414;2022-08-19T04:34:02;18.80;99.90
24814;DHT22;12904;50.088;11.414;2022-08-19T04:36:31;18.90;99.90
24814;DHT22;12904;50.088;11.414;2022-08-19T04:38:59;19.00;99.90
24814;DHT22;12904;50.088;11.414;2022-08-19T04:41:25;19.00;99.90
24814;DHT22;12904;50.088;11.414;2022-08-19T04:44:10;19.00;99.90
24814;DHT22;12904;50.088;11.414;2022-08-19T04:46:36;19.00;99.90
24814;DHT22;12904;50.088;11.414;2022-08-19T04:49:04;19.10;99.90
24814;DHT22;12904;50.088;11.414;2022-08-19T04:51:31;19.10;99.90
24814;DHT22;12904;50.088;11.414;2022-08-19T04:53:57;19.10;99.90
24814;DHT22;12904;50.088;11.414;2022-08-19T04:56:26;19.10;99.90
24814;DHT22;12904;50.088;11.414;2022-08-19T04:58:53;19.10;99.90
24814;DHT22;12904;50.088;11.414;2022-08-19T05:01:27;19.10;99.90
24814;DHT22;12904;50.088;11.414;2022-08-19T05:03:54;19.20;99.90
24814;DHT22;12904;50.088;11.414;2022-08-19T05:06:21;19.20;99.90
24814;DHT22;12904;50.088;11.414;2022-08-19T05:08:48;19.20;99.90
24814;DHT22;12904;50.088;11.414;2022-08-19T05:11:17;19.20;99.90
24814;DHT22;12904;50.088;11.414;2022-08-19T05:13:44;19.20;99.90
24814;DHT22;12904;50.088;11.414;2022-08-19T05:16:11;19.20;99.90
24814;DHT22;12904;50.088;11.414;2022-08-19T05:18:39;19.20;99.90
24814;DHT22;12904;50.088;11.414;2022-08-19T05:21:24;19.30;99.90
24814;DHT22;12904;50.088;11.414;2022-08-19T05:24:08;19.30;99.90
24814;DHT22;12904;50.088;11.414;2022-08-19T05:26:43;19.30;99.90
24814;DHT22;12904;50.088;11.414;2022-08-19T05:29:13;19.30;99.90
24814;DHT22;12904;50.088;11.414;2022-08-19T05:31:39;19.40;99.90
24814;DHT22;12904;50.088;11.414;2022-08-19T05:34:05;19.40;99.90
24814;DHT22;12904;50.088;11.414;2022-08-19T05:36:38;19.40;99.90
24814;DHT22;12904;50.088;11.414;2022-08-19T05:39:08;19.40;99.90
24814;DHT22;12904;50.088;11.414;2022-08-19T05:41:34;19.40;99.90
24814;DHT22;12904;50.088;11.414;2022-08-19T05:44:04;19.50;99.90
24814;DHT22;12904;50.088;11.414;2022-08-19T05:46:35;19.50;99.90
24814;DHT22;12904;50.088;11.414;2022-08-19T05:49:03;19.50;99.90
24814;DHT22;12904;50.088;11.414;2022-08-19T05:51:30;19.50;99.90
24814;DHT22;12904;50.088;11.414;2022-08-19T05:53:55;19.40;99.90
24814;DHT22;12904;50.088;11.414;2022-08-19T05:56:21;19.40;99.90
24814;DHT22;12904;50.088;11.414;2022-08-19T05:58:47;19.50;99.90
24814;DHT22;12904;50.088;11.414;2022-08-19T06:01:16;19.50;99.90
24814;DHT22;12904;50.088;11.414;2022-08-19T06:03:45;19.50;99.90
24814;DHT22;12904;50.088;11.414;2022-08-19T06:06:12;19.60;99.90
24814;DHT22;12904;50.088;11.414;2022-08-19T06:08:38;19.60;99.90
24814;DHT22;12904;50.088;11.414;2022-08-19T06:11:24;19.60;99.90
24814;DHT22;12904;50.088;11.414;2022-08-19T06:13:52;19.60;99.90
24814;DHT22;12904;50.088;11.414;2022-08-19T06:16:21;19.60;99.90
24814;DHT22;12904;50.088;11.414;2022-08-19T06:18:51;19.60;99.90
24814;DHT22;12904;50.088;11.414;2022-08-19T06:21:28;19.60;99.90
24814;DHT22;12904;50.088;11.414;2022-08-19T06:23:58;19.70;99.90
24814;DHT22;12904;50.088;11.414;2022-08-19T06:26:24;19.60;99.90
24814;DHT22;12904;50.088;11.414;2022-08-19T06:28:50;19.70;99.90
24814;DHT22;12904;50.088;11.414;2022-08-19T06:31:24;19.70;99.90
24814;DHT22;12904;50.088;11.414;2022-08-19T06:33:50;19.70;99.90
24814;DHT22;12904;50.088;11.414;2022-08-19T06:36:27;19.70;99.90
24814;DHT22;12904;50.088;11.414;2022-08-19T06:38:55;19.70;99.90
24814;DHT22;12904;50.088;11.414;2022-08-19T06:41:24;19.80;99.90
24814;DHT22;12904;50.088;11.414;2022-08-19T06:43:50;19.80;99.90
24814;DHT22;12904;50.088;11.414;2022-08-19T06:46:17;19.90;99.90
24814;DHT22;12904;50.088;11.414;2022-08-19T06:48:44;19.90;99.90
24814;DHT22;12904;50.088;11.414;2022-08-19T06:51:11;19.90;99.90
24814;DHT22;12904;50.088;11.414;2022-08-19T06:53:36;19.90;99.90
24814;DHT22;12904;50.088;11.414;2022-08-19T06:56:04;19.90;99.90
24814;DHT22;12904;50.088;11.414;2022-08-19T06:58:31;19.90;99.90
24814;DHT22;12904;50.088;11.414;2022-08-19T07:01:03;19.90;99.90
24814;DHT22;12904;50.088;11.414;2022-08-19T07:03:31;20.00;99.90
24814;DHT22;12904;50.088;11.414;2022-08-19T07:06:05;20.10;99.90
24814;DHT22;12904;50.088;11.414;2022-08-19T07:08:32;20.10;99.90
24814;DHT22;12904;50.088;11.414;2022-08-19T07:10:58;20.20;99.90
24814;DHT22;12904;50.088;11.414;2022-08-19T07:13:24;20.20;99.90
24814;DHT22;12904;50.088;11.414;2022-08-19T07:15:50;20.30;99.90
24814;DHT22;12904;50.088;11.414;2022-08-19T07:18:18;20.40;99.90
24814;DHT22;12904;50.088;11.414;2022-08-19T07:20:45;20.40;99.90
24814;DHT22;12904;50.088;11.414;2022-08-19T07:23:11;20.50;99.90
24814;DHT22;12904;50.088;11.414;2022-08-19T07:25:38;20.60;99.90
24814;DHT22;12904;50.088;11.414;2022-08-19T07:28:03;20.70;99.90
24814;DHT22;12904;50.088;11.414;2022-08-19T07:30:30;20.80;99.90
24814;DHT22;12904;50.088;11.414;2022-08-19T07:32:56;20.90;99.90
24814;DHT22;12904;50.088;11.414;2022-08-19T07:35:22;21.10;99.90
24814;DHT22;12904;50.088;11.414;2022-08-19T07:37:49;21.30;99.90
24814;DHT22;12904;50.088;11.414;2022-08-19T07:40:15;21.50;99.90
24814;DHT22;12904;50.088;11.414;2022-08-19T07:42:40;21.60;99.90
24814;DHT22;12904;50.088;11.414;2022-08-19T07:45:07;21.60;99.90
24814;DHT22;12904;50.088;11.414;2022-08-19T07:47:33;21.70;99.90
24814;DHT22;12904;50.088;11.414;2022-08-19T07:49:59;21.80;99.90
24814;DHT22;12904;50.088;11.414;2022-08-19T07:52:25;21.90;99.90
24814;DHT22;12904;50.088;11.414;2022-08-19T07:54:51;22.00;99.90
24814;DHT22;12904;50.088;11.414;2022-08-19T07:57:16;22.00;99.90
24814;DHT22;12904;50.088;11.414;2022-08-19T07:59:42;22.10;99.90
24814;DHT22;12904;50.088;11.414;2022-08-19T08:02:09;22.10;99.90
24814;DHT22;12904;50.088;11.414;2022-08-19T08:04:34;22.10;99.90
24814;DHT22;12904;50.088;11.414;2022-08-19T08:07:18;22.10;99.90
24814;DHT22;12904;50.088;11.414;2022-08-19T08:10:05;22.10;99.90
24814;DHT22;12904;50.088;11.414;2022-08-19T08:12:35;22.10;99.90
24814;DHT22;12904;50.088;11.414;2022-08-19T08:15:09;22.20;99.90
24814;DHT22;12904;50.088;11.414;2022-08-19T08:17:35;22.10;99.90
24814;DHT22;12904;50.088;11.414;2022-08-19T08:20:05;22.20;99.90
24814;DHT22;12904;50.088;11.414;2022-08-19T08:22:34;22.10;99.90
24814;DHT22;12904;50.088;11.414;2022-08-19T08:25:20;22.20;99.90
24814;DHT22;12904;50.088;11.414;2022-08-19T08:27:48;22.30;99.90
24814;DHT22;12904;50.088;11.414;2022-08-19T08:30:26;22.40;99.90
24814;DHT22;12904;50.088;11.414;2022-08-19T08:32:52;22.60;99.90
24814;DHT22;12904;50.088;11.414;2022-08-19T08:35:20;22.70;99.90
24814;DHT22;12904;50.088;11.414;2022-08-19T08:37:48;22.80;99.90
24814;DHT22;12904;50.088;11.414;2022-08-19T08:43:23;23.30;99.90
24814;DHT22;12904;50.088;11.414;2022-08-19T08:46:02;23.30;99.90
24814;DHT22;12904;50.088;11.414;2022-08-19T08:51:33;23.20;99.90
24814;DHT22;12904;50.088;11.414;2022-08-19T08:54:02;23.10;99.90
24814;DHT22;12904;50.088;11.414;2022-08-19T08:56:28;23.00;99.90
24814;DHT22;12904;50.088;11.414;2022-08-19T09:02:04;22.90;99.90
24814;DHT22;12904;50.088;11.414;2022-08-19T09:04:30;22.90;99.90
24814;DHT22;12904;50.088;11.414;2022-08-19T09:09:45;22.90;99.90
24814;DHT22;12904;50.088;11.414;2022-08-19T09:15:08;22.60;99.90
24814;DHT22;12904;50.088;11.414;2022-08-19T09:17:35;22.60;99.90
24814;DHT22;12904;50.088;11.414;2022-08-19T09:20:13;22.60;99.90
24814;DHT22;12904;50.088;11.414;2022-08-19T09:22:42;22.60;99.90
24814;DHT22;12904;50.088;11.414;2022-08-19T09:25:13;22.70;99.90
24814;DHT22;12904;50.088;11.414;2022-08-19T09:27:40;22.70;99.90
24814;DHT22;12904;50.088;11.414;2022-08-19T09:30:08;22.70;99.90
24814;DHT22;12904;50.088;11.414;2022-08-19T09:32:34;22.70;99.90
24814;DHT22;12904;50.088;11.414;2022-08-19T09:35:00;22.60;99.90
24814;DHT22;12904;50.088;11.414;2022-08-19T09:37:27;22.60;99.90
24814;DHT22;12904;50.088;11.414;2022-08-19T09:39:53;22.60;99.90
24814;DHT22;12904;50.088;11.414;2022-08-19T09:42:19;22.60;99.90
24814;DHT22;12904;50.088;11.414;2022-08-19T09:44:45;22.70;99.90
24814;DHT22;12904;50.088;11.414;2022-08-19T09:47:12;22.60;99.90
24814;DHT22;12904;50.088;11.414;2022-08-19T09:49:38;22.60;99.90
24814;DHT22;12904;50.088;11.414;2022-08-19T09:52:05;22.60;99.90
24814;DHT22;12904;50.088;11.414;2022-08-19T09:54:33;22.60;99.90
24814;DHT22;12904;50.088;11.414;2022-08-19T09:57:00;22.50;99.90
24814;DHT22;12904;50.088;11.414;2022-08-19T09:59:29;22.50;99.90
24814;DHT22;12904;50.088;11.414;2022-08-19T10:01:55;22.40;99.90
24814;DHT22;12904;50.088;11.414;2022-08-19T10:04:21;22.40;99.90
24814;DHT22;12904;50.088;11.414;2022-08-19T10:06:49;22.30;99.90
24814;DHT22;12904;50.088;11.414;2022-08-19T10:09:17;22.20;99.90
24814;DHT22;12904;50.088;11.414;2022-08-19T10:11:44;22.10;99.90
24814;DHT22;12904;50.088;11.414;2022-08-19T10:14:15;22.10;99.90
24814;DHT22;12904;50.088;11.414;2022-08-19T10:16:42;22.10;99.90
24814;DHT22;12904;50.088;11.414;2022-08-19T10:19:08;22.10;99.90
24814;DHT22;12904;50.088;11.414;2022-08-19T10:21:35;22.10;99.90
24814;DHT22;12904;50.088;11.414;2022-08-19T10:24:04;22.00;99.90
24814;DHT22;12904;50.088;11.414;2022-08-19T10:26:37;22.00;99.90
24814;DHT22;12904;50.088;11.414;2022-08-19T10:29:05;22.00;99.90
24814;DHT22;12904;50.088;11.414;2022-08-19T10:31:33;22.00;99.90
24814;DHT22;12904;50.088;11.414;2022-08-19T10:33:59;22.00;99.90
24814;DHT22;12904;50.088;11.414;2022-08-19T10:36:28;22.00;99.90
24814;DHT22;12904;50.088;11.414;2022-08-19T10:38:56;22.00;99.90
24814;DHT22;12904;50.088;11.414;2022-08-19T10:41:26;22.10;99.90
24814;DHT22;12904;50.088;11.414;2022-08-19T10:43:54;22.20;99.90
24814;DHT22;12904;50.088;11.414;2022-08-19T10:46:21;22.30;99.90
24814;DHT22;12904;50.088;11.414;2022-08-19T10:48:49;22.30;99.90
24814;DHT22;12904;50.088;11.414;2022-08-19T10:51:15;22.40;99.90
24814;DHT22;12904;50.088;11.414;2022-08-19T10:54:01;22.30;99.90
24814;DHT22;12904;50.088;11.414;2022-08-19T10:56:27;22.30;99.90
24814;DHT22;12904;50.088;11.414;2022-08-19T10:59:12;22.20;99.90
24814;DHT22;12904;50.088;11.414;2022-08-19T11:01:41;22.10;99.90
24814;DHT22;12904;50.088;11.414;2022-08-19T11:04:07;22.10;99.90
24814;DHT22;12904;50.088;11.414;2022-08-19T11:06:37;22.20;99.90
24814;DHT22;12904;50.088;11.414;2022-08-19T11:09:04;22.30;99.90
24814;DHT22;12904;50.088;11.414;2022-08-19T11:11:31;22.40;99.90
24814;DHT22;12904;50.088;11.414;2022-08-19T11:13:58;22.40;99.90
24814;DHT22;12904;50.088;11.414;2022-08-19T11:16:26;22.60;99.90
24814;DHT22;12904;50.088;11.414;2022-08-19T11:18:56;22.70;99.90
24814;DHT22;12904;50.088;11.414;2022-08-19T11:21:38;22.90;99.90
24814;DHT22;12904;50.088;11.414;2022-08-19T11:24:08;23.00;99.90
24814;DHT22;12904;50.088;11.414;2022-08-19T11:26:35;23.20;99.90
24814;DHT22;12904;50.088;11.414;2022-08-19T11:29:03;23.40;99.90
24814;DHT22;12904;50.088;11.414;2022-08-19T11:31:31;23.70;99.90
24814;DHT22;12904;50.088;11.414;2022-08-19T11:33:59;24.00;99.90
24814;DHT22;12904;50.088;11.414;2022-08-19T11:36:25;24.30;99.90
24814;DHT22;12904;50.088;11.414;2022-08-19T11:38:52;24.40;99.90
24814;DHT22;12904;50.088;11.414;2022-08-19T11:41:19;24.60;99.90
24814;DHT22;12904;50.088;11.414;2022-08-19T11:43:45;24.50;99.90
24814;DHT22;12904;50.088;11.414;2022-08-19T11:46:13;24.40;99.90
24814;DHT22;12904;50.088;11.414;2022-08-19T11:48:40;24.20;99.90
24814;DHT22;12904;50.088;11.414;2022-08-19T11:51:12;24.10;99.90
24814;DHT22;12904;50.088;11.414;2022-08-19T11:53:38;24.00;99.90
24814;DHT22;12904;50.088;11.414;2022-08-19T11:56:06;23.80;99.90
24814;DHT22;12904;50.088;11.414;2022-08-19T11:58:32;23.80;99.90
24814;DHT22;12904;50.088;11.414;2022-08-19T12:00:59;23.60;99.90
24814;DHT22;12904;50.088;11.414;2022-08-19T12:03:25;23.50;99.90
24814;DHT22;12904;50.088;11.414;2022-08-19T12:05:51;23.40;99.90
24814;DHT22;12904;50.088;11.414;2022-08-19T12:08:17;23.30;99.90
24814;DHT22;12904;50.088;11.414;2022-08-19T12:10:43;23.20;99.90
24814;DHT22;12904;50.088;11.414;2022-08-19T12:13:11;23.10;99.90
24814;DHT22;12904;50.088;11.414;2022-08-19T12:15:40;23.00;99.90
24814;DHT22;12904;50.088;11.414;2022-08-19T12:18:07;23.00;99.90
24814;DHT22;12904;50.088;11.414;2022-08-19T12:20:37;23.20;99.90
24814;DHT22;12904;50.088;11.414;2022-08-19T12:23:04;23.30;99.90
24814;DHT22;12904;50.088;11.414;2022-08-19T12:25:30;23.40;99.90
24814;DHT22;12904;50.088;11.414;2022-08-19T12:27:57;23.40;99.90
24814;DHT22;12904;50.088;11.414;2022-08-19T12:30:24;23.30;99.90
24814;DHT22;12904;50.088;11.414;2022-08-19T12:32:49;23.30;99.90
24814;DHT22;12904;50.088;11.414;2022-08-19T12:35:17;23.20;99.90
24814;DHT22;12904;50.088;11.414;2022-08-19T12:37:46;23.20;99.90
24814;DHT22;12904;50.088;11.414;2022-08-19T12:40:14;23.20;99.90
24814;DHT22;12904;50.088;11.414;2022-08-19T12:42:40;23.20;99.90
24814;DHT22;12904;50.088;11.414;2022-08-19T12:45:10;23.20;99.90
24814;DHT22;12904;50.088;11.414;2022-08-19T12:47:37;23.20;99.90
24814;DHT22;12904;50.088;11.414;2022-08-19T12:50:03;23.20;99.90
24814;DHT22;12904;50.088;11.414;2022-08-19T12:52:29;23.30;99.90
24814;DHT22;12904;50.088;11.414;2022-08-19T12:54:56;23.40;99.90
24814;DHT22;12904;50.088;11.414;2022-08-19T12:57:24;23.50;99.90
24814;DHT22;12904;50.088;11.414;2022-08-19T12:59:54;23.60;99.90
24814;DHT22;12904;50.088;11.414;2022-08-19T13:02:20;23.70;99.90
24814;DHT22;12904;50.088;11.414;2022-08-19T13:04:46;23.80;99.90
24814;DHT22;12904;50.088;11.414;2022-08-19T13:07:15;23.80;99.90
24814;DHT22;12904;50.088;11.414;2022-08-19T13:09:41;23.90;99.90
24814;DHT22;12904;50.088;11.414;2022-08-19T13:12:08;23.90;99.90
24814;DHT22;12904;50.088;11.414;2022-08-19T13:14:38;24.00;99.90
24814;DHT22;12904;50.088;11.414;2022-08-19T13:17:06;24.10;99.90
24814;DHT22;12904;50.088;11.414;2022-08-19T13:19:32;24.10;99.90
24814;DHT22;12904;50.088;11.414;2022-08-19T13:21:58;24.20;99.90
24814;DHT22;12904;50.088;11.414;2022-08-19T13:24:24;24.10;99.90
24814;DHT22;12904;50.088;11.414;2022-08-19T13:26:50;24.10;99.90
24814;DHT22;12904;50.088;11.414;2022-08-19T13:29:16;24.10;99.90
24814;DHT22;12904;50.088;11.414;2022-08-19T13:32:00;24.00;99.90
24814;DHT22;12904;50.088;11.414;2022-08-19T13:34:45;24.00;99.90
24814;DHT22;12904;50.088;11.414;2022-08-19T13:37:12;24.00;99.90
24814;DHT22;12904;50.088;11.414;2022-08-19T13:39:38;24.00;99.90
24814;DHT22;12904;50.088;11.414;2022-08-19T13:42:04;24.00;99.90
24814;DHT22;12904;50.088;11.414;2022-08-19T13:44:31;23.90;99.90
24814;DHT22;12904;50.088;11.414;2022-08-19T13:47:02;23.90;99.90
24814;DHT22;12904;50.088;11.414;2022-08-19T13:49:33;23.80;99.90
24814;DHT22;12904;50.088;11.414;2022-08-19T13:51:58;23.70;99.90
24814;DHT22;12904;50.088;11.414;2022-08-19T13:54:24;23.70;99.90
24814;DHT22;12904;50.088;11.414;2022-08-19T13:56:50;23.70;99.90
24814;DHT22;12904;50.088;11.414;2022-08-19T13:59:16;23.70;99.90
24814;DHT22;12904;50.088;11.414;2022-08-19T14:01:42;23.80;99.90
24814;DHT22;12904;50.088;11.414;2022-08-19T14:04:09;23.80;99.90
24814;DHT22;12904;50.088;11.414;2022-08-19T14:06:35;23.70;99.90
24814;DHT22;12904;50.088;11.414;2022-08-19T14:09:01;23.60;99.90
24814;DHT22;12904;50.088;11.414;2022-08-19T14:11:28;23.60;99.90
24814;DHT22;12904;50.088;11.414;2022-08-19T14:13:54;23.60;99.90
24814;DHT22;12904;50.088;11.414;2022-08-19T14:16:19;23.60;99.90
24814;DHT22;12904;50.088;11.414;2022-08-19T14:18:46;23.50;99.90
24814;DHT22;12904;50.088;11.414;2022-08-19T14:21:18;23.50;99.90
24814;DHT22;12904;50.088;11.414;2022-08-19T14:23:45;23.50;99.90
24814;DHT22;12904;50.088;11.414;2022-08-19T14:26:14;23.60;99.90
24814;DHT22;12904;50.088;11.414;2022-08-19T14:28:41;23.60;99.90
24814;DHT22;12904;50.088;11.414;2022-08-19T14:31:11;23.70;99.90
24814;DHT22;12904;50.088;11.414;2022-08-19T14:33:38;23.60;99.90
24814;DHT22;12904;50.088;11.414;2022-08-19T14:36:04;23.50;99.90
24814;DHT22;12904;50.088;11.414;2022-08-19T14:38:30;23.40;99.90
24814;DHT22;12904;50.088;11.414;2022-08-19T14:41:19;23.30;99.90
24814;DHT22;12904;50.088;11.414;2022-08-19T14:43:47;23.20;99.90
24814;DHT22;12904;50.088;11.414;2022-08-19T14:46:15;23.00;99.90
24814;DHT22;12904;50.088;11.414;2022-08-19T14:48:42;22.90;99.90
24814;DHT22;12904;50.088;11.414;2022-08-19T14:51:08;22.80;99.90
24814;DHT22;12904;50.088;11.414;2022-08-19T14:53:34;22.70;99.90
24814;DHT22;12904;50.088;11.414;2022-08-19T14:56:01;22.60;99.90
24814;DHT22;12904;50.088;11.414;2022-08-19T14:58:28;22.50;99.90
24814;DHT22;12904;50.088;11.414;2022-08-19T15:00:53;22.40;99.90
24814;DHT22;12904;50.088;11.414;2022-08-19T15:03:19;22.30;99.90
24814;DHT22;12904;50.088;11.414;2022-08-19T15:05:45;22.30;99.90
24814;DHT22;12904;50.088;11.414;2022-08-19T15:08:11;22.20;99.90
24814;DHT22;12904;50.088;11.414;2022-08-19T15:10:38;22.20;99.90
24814;DHT22;12904;50.088;11.414;2022-08-19T15:13:04;22.10;99.90
24814;DHT22;12904;50.088;11.414;2022-08-19T15:15:31;22.00;99.90
24814;DHT22;12904;50.088;11.414;2022-08-19T15:17:57;22.00;99.90
24814;DHT22;12904;50.088;11.414;2022-08-19T15:20:28;22.00;99.90
24814;DHT22;12904;50.088;11.414;2022-08-19T15:22:54;21.90;99.90
24814;DHT22;12904;50.088;11.414;2022-08-19T15:25:20;21.90;99.90
24814;DHT22;12904;50.088;11.414;2022-08-19T15:27:47;21.90;99.90
24814;DHT22;12904;50.088;11.414;2022-08-19T15:30:23;21.80;99.90
24814;DHT22;12904;50.088;11.414;2022-08-19T15:32:49;21.80;99.90
24814;DHT22;12904;50.088;11.414;2022-08-19T15:35:15;21.80;99.90
24814;DHT22;12904;50.088;11.414;2022-08-19T15:37:44;21.80;99.90